sensor_id;sensor_type;location;lat;lon;timestamp;temperature;humidity
67050;DHT22;53955;52.442;13.284;2023-07-29T00:00:52;20.90;86.40
67050;DHT22;53955;52.442;13.284;2023-07-29T00:03:20;20.90;86.10
67050;DHT22;53955;52.442;13.284;2023-07-29T00:05:47;20.90;87.70
67050;DHT22;53955;52.442;13.284;2023-07-29T00:08:14;20.80;88.00
67050;DHT22;53955;52.442;13.284;2023-07-29T00:10:41;20.90;87.40
67050;DHT22;53955;52.442;13.284;2023-07-29T00:13:08;20.90;87.40
67050;DHT22;53955;52.442;13.284;2023-07-29T00:15:34;20.80;87.40
67050;DHT22;53955;52.442;13.284;2023-07-29T00:18:01;20.90;85.80
67050;DHT22;53955;52.442;13.284;2023-07-29T00:20:29;20.90;85.10
67050;DHT22;53955;52.442;13.284;2023-07-29T00:22:55;20.90;85.70
67050;DHT22;53955;52.442;13.284;2023-07-29T00:25:24;20.80;87.30
67050;DHT22;53955;52.442;13.284;2023-07-29T00:27:50;20.70;87.70
67050;DHT22;53955;52.442;13.284;2023-07-29T00:30:17;20.80;87.50
67050;DHT22;53955;52.442;13.284;2023-07-29T00:32:43;20.70;87.50
67050;DHT22;53955;52.442;13.284;2023-07-29T00:35:10;20.70;87.40
67050;DHT22;53955;52.442;13.284;2023-07-29T00:37:38;20.70;87.30
67050;DHT22;53955;52.442;13.284;2023-07-29T00:40:12;20.60;87.50
67050;DHT22;53955;52.442;13.284;2023-07-29T00:42:40;20.70;87.40
67050;DHT22;53955;52.442;13.284;2023-07-29T00:45:08;20.70;87.30
67050;DHT22;53955;52.442;13.284;2023-07-29T00:47:35;20.50;87.60
67050;DHT22;53955;52.442;13.284;2023-07-29T00:50:02;20.80;87.20
67050;DHT22;53955;52.442;13.284;2023-07-29T00:52:29;20.80;87.10
67050;DHT22;53955;52.442;13.284;2023-07-29T00:54:57;20.60;87.20
67050;DHT22;53955;52.442;13.284;2023-07-29T00:57:24;20.60;87.10
67050;DHT22;53955;52.442;13.284;2023-07-29T00:59:52;20.60;87.20
67050;DHT22;53955;52.442;13.284;2023-07-29T01:02:18;20.60;87.30
67050;DHT22;53955;52.442;13.284;2023-07-29T01:04:45;20.50;87.00
67050;DHT22;53955;52.442;13.284;2023-07-29T01:07:17;20.50;87.50
67050;DHT22;53955;52.442;13.284;2023-07-29T01:09:50;20.50;87.00
67050;DHT22;53955;52.442;13.284;2023-07-29T01:12:26;20.50;87.20
67050;DHT22;53955;52.442;13.284;2023-07-29T01:14:59;20.50;87.30
67050;DHT22;53955;52.442;13.284;2023-07-29T01:17:38;20.50;87.00
67050;DHT22;53955;52.442;13.284;2023-07-29T01:20:08;20.40;87.60
67050;DHT22;53955;52.442;13.284;2023-07-29T01:22:36;20.40;87.50
67050;DHT22;53955;52.442;13.284;2023-07-29T01:25:05;20.40;87.70
67050;DHT22;53955;52.442;13.284;2023-07-29T01:27:32;20.30;87.30
67050;DHT22;53955;52.442;13.284;2023-07-29T01:29:59;20.30;87.40
67050;DHT22;53955;52.442;13.284;2023-07-29T01:32:35;20.30;87.90
67050;DHT22;53955;52.442;13.284;2023-07-29T01:35:08;20.30;87.60
67050;DHT22;53955;52.442;13.284;2023-07-29T01:37:37;20.20;87.80
67050;DHT22;53955;52.442;13.284;2023-07-29T01:40:08;20.30;87.40
67050;DHT22;53955;52.442;13.284;2023-07-29T01:42:35;20.30;87.20
67050;DHT22;53955;52.442;13.284;2023-07-29T01:45:02;20.30;87.20
67050;DHT22;53955;52.442;13.284;2023-07-29T01:47:29;20.30;87.20
67050;DHT22;53955;52.442;13.284;2023-07-29T01:49:55;20.20;87.40
67050;DHT22;53955;52.442;13.284;2023-07-29T01:52:22;20.20;87.30
67050;DHT22;53955;52.442;13.284;2023-07-29T01:54:48;20.20;87.10
67050;DHT22;53955;52.442;13.284;2023-07-29T01:57:16;20.30;87.10
67050;DHT22;53955;52.442;13.284;2023-07-29T01:59:43;20.20;87.50
67050;DHT22;53955;52.442;13.284;2023-07-29T02:02:09;20.10;87.30
67050;DHT22;53955;52.442;13.284;2023-07-29T02:04:37;20.10;87.20
67050;DHT22;53955;52.442;13.284;2023-07-29T02:07:04;20.10;87.50
67050;DHT22;53955;52.442;13.284;2023-07-29T02:09:30;20.10;87.30
67050;DHT22;53955;52.442;13.284;2023-07-29T02:11:57;20.10;87.80
67050;DHT22;53955;52.442;13.284;2023-07-29T02:14:25;20.10;87.60
67050;DHT22;53955;52.442;13.284;2023-07-29T02:16:51;20.20;87.70
67050;DHT22;53955;52.442;13.284;2023-07-29T02:19:18;20.10;87.30
67050;DHT22;53955;52.442;13.284;2023-07-29T02:21:45;20.10;87.30
67050;DHT22;53955;52.442;13.284;2023-07-29T02:24:11;20.10;87.20
67050;DHT22;53955;52.442;13.284;2023-07-29T02:26:38;20.10;87.10
67050;DHT22;53955;52.442;13.284;2023-07-29T02:29:04;20.00;87.60
67050;DHT22;53955;52.442;13.284;2023-07-29T02:31:32;20.00;87.00
67050;DHT22;53955;52.442;13.284;2023-07-29T02:34:00;20.00;87.40
67050;DHT22;53955;52.442;13.284;2023-07-29T02:36:26;20.00;87.70
67050;DHT22;53955;52.442;13.284;2023-07-29T02:38:53;20.00;87.10
67050;DHT22;53955;52.442;13.284;2023-07-29T02:41:20;20.00;87.00
67050;DHT22;53955;52.442;13.284;2023-07-29T02:43:49;20.10;86.90
67050;DHT22;53955;52.442;13.284;2023-07-29T02:46:16;20.20;86.40
67050;DHT22;53955;52.442;13.284;2023-07-29T02:48:44;20.10;86.00
67050;DHT22;53955;52.442;13.284;2023-07-29T02:51:11;20.10;86.40
67050;DHT22;53955;52.442;13.284;2023-07-29T02:53:37;20.00;86.30
67050;DHT22;53955;52.442;13.284;2023-07-29T02:56:04;19.90;86.40
67050;DHT22;53955;52.442;13.284;2023-07-29T02:58:31;20.00;86.30
67050;DHT22;53955;52.442;13.284;2023-07-29T03:01:00;20.00;86.50
67050;DHT22;53955;52.442;13.284;2023-07-29T03:03:27;20.00;86.40
67050;DHT22;53955;52.442;13.284;2023-07-29T03:05:59;19.80;86.30
67050;DHT22;53955;52.442;13.284;2023-07-29T03:08:26;19.90;86.40
67050;DHT22;53955;52.442;13.284;2023-07-29T03:10:53;19.80;86.60
67050;DHT22;53955;52.442;13.284;2023-07-29T03:13:20;19.80;86.80
67050;DHT22;53955;52.442;13.284;2023-07-29T03:15:46;19.80;86.90
67050;DHT22;53955;52.442;13.284;2023-07-29T03:18:13;19.80;86.50
67050;DHT22;53955;52.442;13.284;2023-07-29T03:20:39;20.00;85.70
67050;DHT22;53955;52.442;13.284;2023-07-29T03:23:07;20.00;86.00
67050;DHT22;53955;52.442;13.284;2023-07-29T03:25:34;19.90;86.10
67050;DHT22;53955;52.442;13.284;2023-07-29T03:28:00;20.00;85.70
67050;DHT22;53955;52.442;13.284;2023-07-29T03:30:27;19.90;85.80
67050;DHT22;53955;52.442;13.284;2023-07-29T03:32:53;19.90;86.20
67050;DHT22;53955;52.442;13.284;2023-07-29T03:35:20;20.10;85.70
67050;DHT22;53955;52.442;13.284;2023-07-29T03:37:46;20.00;85.70
67050;DHT22;53955;52.442;13.284;2023-07-29T03:40:14;19.90;85.80
67050;DHT22;53955;52.442;13.284;2023-07-29T03:42:41;19.90;85.80
67050;DHT22;53955;52.442;13.284;2023-07-29T03:45:08;19.90;86.20
67050;DHT22;53955;52.442;13.284;2023-07-29T03:47:35;20.10;84.80
67050;DHT22;53955;52.442;13.284;2023-07-29T03:50:02;20.00;84.60
67050;DHT22;53955;52.442;13.284;2023-07-29T03:52:29;20.10;85.50
67050;DHT22;53955;52.442;13.284;2023-07-29T03:54:56;20.20;84.90
67050;DHT22;53955;52.442;13.284;2023-07-29T03:57:24;20.20;84.30
67050;DHT22;53955;52.442;13.284;2023-07-29T03:59:50;20.20;84.50
67050;DHT22;53955;52.442;13.284;2023-07-29T04:02:17;20.10;84.90
67050;DHT22;53955;52.442;13.284;2023-07-29T04:04:43;20.20;84.40
67050;DHT22;53955;52.442;13.284;2023-07-29T04:07:12;20.40;84.00
67050;DHT22;53955;52.442;13.284;2023-07-29T04:09:39;20.30;84.10
67050;DHT22;53955;52.442;13.284;2023-07-29T04:12:06;20.30;84.50
67050;DHT22;53955;52.442;13.284;2023-07-29T04:14:34;20.40;84.40
67050;DHT22;53955;52.442;13.284;2023-07-29T04:17:01;20.40;84.00
67050;DHT22;53955;52.442;13.284;2023-07-29T04:19:27;20.40;83.70
67050;DHT22;53955;52.442;13.284;2023-07-29T04:21:54;20.60;83.20
67050;DHT22;53955;52.442;13.284;2023-07-29T04:24:20;20.70;83.10
67050;DHT22;53955;52.442;13.284;2023-07-29T04:26:48;20.60;83.60
67050;DHT22;53955;52.442;13.284;2023-07-29T04:29:15;20.40;84.10
67050;DHT22;53955;52.442;13.284;2023-07-29T04:31:43;20.60;83.50
67050;DHT22;53955;52.442;13.284;2023-07-29T04:34:09;20.50;84.20
67050;DHT22;53955;52.442;13.284;2023-07-29T04:36:36;20.60;84.30
67050;DHT22;53955;52.442;13.284;2023-07-29T04:39:02;20.60;83.80
67050;DHT22;53955;52.442;13.284;2023-07-29T04:41:29;20.50;84.10
67050;DHT22;53955;52.442;13.284;2023-07-29T04:43:55;20.60;84.40
67050;DHT22;53955;52.442;13.284;2023-07-29T04:46:22;20.80;83.70
67050;DHT22;53955;52.442;13.284;2023-07-29T04:48:50;21.20;81.30
67050;DHT22;53955;52.442;13.284;2023-07-29T04:51:16;21.60;79.80
67050;DHT22;53955;52.442;13.284;2023-07-29T04:53:43;22.20;77.50
67050;DHT22;53955;52.442;13.284;2023-07-29T04:56:15;22.40;76.50
67050;DHT22;53955;52.442;13.284;2023-07-29T04:58:42;22.40;76.50
67050;DHT22;53955;52.442;13.284;2023-07-29T05:01:09;22.40;76.20
67050;DHT22;53955;52.442;13.284;2023-07-29T05:03:35;22.20;76.60
67050;DHT22;53955;52.442;13.284;2023-07-29T05:06:06;22.10;77.10
67050;DHT22;53955;52.442;13.284;2023-07-29T05:08:33;21.80;78.20
67050;DHT22;53955;52.442;13.284;2023-07-29T05:10:59;21.90;79.00
67050;DHT22;53955;52.442;13.284;2023-07-29T05:13:26;22.40;78.00
67050;DHT22;53955;52.442;13.284;2023-07-29T05:15:52;23.90;71.70
67050;DHT22;53955;52.442;13.284;2023-07-29T05:18:20;26.20;63.20
67050;DHT22;53955;52.442;13.284;2023-07-29T05:20:47;28.10;54.80
67050;DHT22;53955;52.442;13.284;2023-07-29T05:23:15;28.80;51.40
67050;DHT22;53955;52.442;13.284;2023-07-29T05:25:41;27.80;53.30
67050;DHT22;53955;52.442;13.284;2023-07-29T05:28:08;26.50;57.60
67050;DHT22;53955;52.442;13.284;2023-07-29T05:30:34;25.40;63.30
67050;DHT22;53955;52.442;13.284;2023-07-29T05:33:02;24.50;66.10
67050;DHT22;53955;52.442;13.284;2023-07-29T05:35:29;23.90;68.50
67050;DHT22;53955;52.442;13.284;2023-07-29T05:37:56;23.70;70.80
67050;DHT22;53955;52.442;13.284;2023-07-29T05:40:24;25.70;66.00
67050;DHT22;53955;52.442;13.284;2023-07-29T05:42:50;27.80;55.70
67050;DHT22;53955;52.442;13.284;2023-07-29T05:45:17;27.90;54.50
67050;DHT22;53955;52.442;13.284;2023-07-29T05:47:43;27.50;55.20
67050;DHT22;53955;52.442;13.284;2023-07-29T05:50:10;27.10;58.10
67050;DHT22;53955;52.442;13.284;2023-07-29T05:52:36;28.10;55.20
67050;DHT22;53955;52.442;13.284;2023-07-29T05:55:04;29.10;49.40
67050;DHT22;53955;52.442;13.284;2023-07-29T05:57:32;28.50;52.90
67050;DHT22;53955;52.442;13.284;2023-07-29T05:59:58;28.50;52.60
67050;DHT22;53955;52.442;13.284;2023-07-29T06:02:25;28.20;52.60
67050;DHT22;53955;52.442;13.284;2023-07-29T06:04:51;27.60;55.10
67050;DHT22;53955;52.442;13.284;2023-07-29T06:07:18;27.50;55.90
67050;DHT22;53955;52.442;13.284;2023-07-29T06:09:44;27.60;55.00
67050;DHT22;53955;52.442;13.284;2023-07-29T06:12:11;28.80;52.60
67050;DHT22;53955;52.442;13.284;2023-07-29T06:14:39;31.20;45.80
67050;DHT22;53955;52.442;13.284;2023-07-29T06:17:06;32.00;41.80
67050;DHT22;53955;52.442;13.284;2023-07-29T06:19:33;32.40;41.20
67050;DHT22;53955;52.442;13.284;2023-07-29T06:21:59;33.60;39.00
67050;DHT22;53955;52.442;13.284;2023-07-29T06:24:27;34.90;36.50
67050;DHT22;53955;52.442;13.284;2023-07-29T06:26:53;35.60;35.40
67050;DHT22;53955;52.442;13.284;2023-07-29T06:29:20;36.40;33.90
67050;DHT22;53955;52.442;13.284;2023-07-29T06:31:48;36.30;34.10
67050;DHT22;53955;52.442;13.284;2023-07-29T06:34:16;36.60;33.60
67050;DHT22;53955;52.442;13.284;2023-07-29T06:36:43;36.30;33.60
67050;DHT22;53955;52.442;13.284;2023-07-29T06:39:10;35.80;34.30
67050;DHT22;53955;52.442;13.284;2023-07-29T06:41:39;34.90;35.20
67050;DHT22;53955;52.442;13.284;2023-07-29T06:44:06;34.10;37.00
67050;DHT22;53955;52.442;13.284;2023-07-29T06:46:32;33.60;37.70
67050;DHT22;53955;52.442;13.284;2023-07-29T06:49:00;32.70;40.10
67050;DHT22;53955;52.442;13.284;2023-07-29T06:51:27;32.10;40.70
67050;DHT22;53955;52.442;13.284;2023-07-29T06:56:40;31.20;43.70
67050;DHT22;53955;52.442;13.284;2023-07-29T06:59:07;30.50;44.80
67050;DHT22;53955;52.442;13.284;2023-07-29T07:01:34;29.90;47.30
67050;DHT22;53955;52.442;13.284;2023-07-29T07:04:02;29.50;47.30
67050;DHT22;53955;52.442;13.284;2023-07-29T07:06:28;29.30;48.00
67050;DHT22;53955;52.442;13.284;2023-07-29T07:08:55;29.10;49.10
67050;DHT22;53955;52.442;13.284;2023-07-29T07:11:21;28.90;51.80
67050;DHT22;53955;52.442;13.284;2023-07-29T07:13:48;28.80;51.70
67050;DHT22;53955;52.442;13.284;2023-07-29T07:16:14;28.80;52.00
67050;DHT22;53955;52.442;13.284;2023-07-29T07:18:41;29.10;49.20
67050;DHT22;53955;52.442;13.284;2023-07-29T07:21:09;29.00;50.20
67050;DHT22;53955;52.442;13.284;2023-07-29T07:23:36;28.90;51.10
67050;DHT22;53955;52.442;13.284;2023-07-29T07:26:02;28.90;51.00
67050;DHT22;53955;52.442;13.284;2023-07-29T07:28:29;28.90;51.10
67050;DHT22;53955;52.442;13.284;2023-07-29T07:30:55;29.00;51.80
67050;DHT22;53955;52.442;13.284;2023-07-29T07:33:29;29.20;49.20
67050;DHT22;53955;52.442;13.284;2023-07-29T07:35:56;29.40;47.70
67050;DHT22;53955;52.442;13.284;2023-07-29T07:38:24;29.20;49.00
67050;DHT22;53955;52.442;13.284;2023-07-29T07:40:54;29.10;48.90
67050;DHT22;53955;52.442;13.284;2023-07-29T07:43:21;29.10;50.10
67050;DHT22;53955;52.442;13.284;2023-07-29T07:45:48;28.90;51.20
67050;DHT22;53955;52.442;13.284;2023-07-29T07:48:14;29.10;48.40
67050;DHT22;53955;52.442;13.284;2023-07-29T07:50:42;29.00;49.70
67050;DHT22;53955;52.442;13.284;2023-07-29T07:53:09;28.80;49.50
67050;DHT22;53955;52.442;13.284;2023-07-29T07:55:36;28.80;51.50
67050;DHT22;53955;52.442;13.284;2023-07-29T07:58:03;28.70;50.40
67050;DHT22;53955;52.442;13.284;2023-07-29T08:00:30;28.60;50.40
67050;DHT22;53955;52.442;13.284;2023-07-29T08:02:56;28.30;51.50
67050;DHT22;53955;52.442;13.284;2023-07-29T08:05:23;28.30;52.20
67050;DHT22;53955;52.442;13.284;2023-07-29T08:07:50;28.20;52.10
67050;DHT22;53955;52.442;13.284;2023-07-29T08:10:16;27.80;53.10
67050;DHT22;53955;52.442;13.284;2023-07-29T08:12:44;27.60;54.40
67050;DHT22;53955;52.442;13.284;2023-07-29T08:15:11;27.50;54.20
67050;DHT22;53955;52.442;13.284;2023-07-29T08:17:38;27.50;54.70
67050;DHT22;53955;52.442;13.284;2023-07-29T08:20:05;27.70;53.70
67050;DHT22;53955;52.442;13.284;2023-07-29T08:22:32;28.00;54.20
67050;DHT22;53955;52.442;13.284;2023-07-29T08:24:58;28.00;53.20
67050;DHT22;53955;52.442;13.284;2023-07-29T08:27:25;28.10;52.60
67050;DHT22;53955;52.442;13.284;2023-07-29T08:29:53;28.20;52.70
67050;DHT22;53955;52.442;13.284;2023-07-29T08:32:20;28.10;52.90
67050;DHT22;53955;52.442;13.284;2023-07-29T08:34:46;28.00;53.70
67050;DHT22;53955;52.442;13.284;2023-07-29T08:37:13;27.80;52.70
67050;DHT22;53955;52.442;13.284;2023-07-29T08:39:39;27.50;53.80
67050;DHT22;53955;52.442;13.284;2023-07-29T08:42:08;27.10;54.60
67050;DHT22;53955;52.442;13.284;2023-07-29T08:44:41;26.80;56.50
67050;DHT22;53955;52.442;13.284;2023-07-29T08:47:09;26.80;56.90
67050;DHT22;53955;52.442;13.284;2023-07-29T08:49:36;26.80;56.60
67050;DHT22;53955;52.442;13.284;2023-07-29T08:52:04;26.90;56.50
67050;DHT22;53955;52.442;13.284;2023-07-29T08:54:31;26.90;57.10
67050;DHT22;53955;52.442;13.284;2023-07-29T08:56:58;27.00;57.00
67050;DHT22;53955;52.442;13.284;2023-07-29T08:59:26;27.10;55.10
67050;DHT22;53955;52.442;13.284;2023-07-29T09:01:54;27.10;55.60
67050;DHT22;53955;52.442;13.284;2023-07-29T09:04:24;27.10;57.30
67050;DHT22;53955;52.442;13.284;2023-07-29T09:06:51;27.20;55.40
67050;DHT22;53955;52.442;13.284;2023-07-29T09:09:17;27.10;55.90
67050;DHT22;53955;52.442;13.284;2023-07-29T09:11:44;27.10;56.70
67050;DHT22;53955;52.442;13.284;2023-07-29T09:14:11;27.20;56.00
67050;DHT22;53955;52.442;13.284;2023-07-29T09:16:38;27.30;54.40
67050;DHT22;53955;52.442;13.284;2023-07-29T09:19:05;27.20;54.90
67050;DHT22;53955;52.442;13.284;2023-07-29T09:21:33;27.30;55.40
67050;DHT22;53955;52.442;13.284;2023-07-29T09:24:03;27.30;54.90
67050;DHT22;53955;52.442;13.284;2023-07-29T09:26:30;27.50;56.50
67050;DHT22;53955;52.442;13.284;2023-07-29T09:28:58;27.50;54.90
67050;DHT22;53955;52.442;13.284;2023-07-29T09:31:26;27.50;54.80
67050;DHT22;53955;52.442;13.284;2023-07-29T09:33:56;27.50;54.30
67050;DHT22;53955;52.442;13.284;2023-07-29T09:36:23;27.40;54.50
67050;DHT22;53955;52.442;13.284;2023-07-29T09:38:53;27.40;55.40
67050;DHT22;53955;52.442;13.284;2023-07-29T09:41:22;27.50;54.40
67050;DHT22;53955;52.442;13.284;2023-07-29T09:43:55;27.50;54.80
67050;DHT22;53955;52.442;13.284;2023-07-29T09:46:23;27.50;54.80
67050;DHT22;53955;52.442;13.284;2023-07-29T09:48:53;27.40;55.90
67050;DHT22;53955;52.442;13.284;2023-07-29T09:51:20;27.50;55.80
67050;DHT22;53955;52.442;13.284;2023-07-29T09:53:48;27.50;55.30
67050;DHT22;53955;52.442;13.284;2023-07-29T09:56:16;27.50;54.90
67050;DHT22;53955;52.442;13.284;2023-07-29T09:58:43;27.60;54.80
67050;DHT22;53955;52.442;13.284;2023-07-29T10:01:11;27.60;54.50
67050;DHT22;53955;52.442;13.284;2023-07-29T10:03:38;27.50;55.70
67050;DHT22;53955;52.442;13.284;2023-07-29T10:06:06;27.50;56.30
67050;DHT22;53955;52.442;13.284;2023-07-29T10:08:33;27.60;57.00
67050;DHT22;53955;52.442;13.284;2023-07-29T10:11:01;27.70;56.50
67050;DHT22;53955;52.442;13.284;2023-07-29T10:13:29;27.80;55.10
67050;DHT22;53955;52.442;13.284;2023-07-29T10:15:56;27.70;53.50
67050;DHT22;53955;52.442;13.284;2023-07-29T10:18:24;27.60;52.80
67050;DHT22;53955;52.442;13.284;2023-07-29T10:20:51;27.50;54.40
67050;DHT22;53955;52.442;13.284;2023-07-29T10:23:19;27.40;55.00
67050;DHT22;53955;52.442;13.284;2023-07-29T10:25:51;27.20;55.10
67050;DHT22;53955;52.442;13.284;2023-07-29T10:28:20;27.20;54.90
67050;DHT22;53955;52.442;13.284;2023-07-29T10:30:53;27.20;56.00
67050;DHT22;53955;52.442;13.284;2023-07-29T10:33:21;27.10;56.50
67050;DHT22;53955;52.442;13.284;2023-07-29T10:35:48;27.20;56.70
67050;DHT22;53955;52.442;13.284;2023-07-29T10:38:15;27.30;55.70
67050;DHT22;53955;52.442;13.284;2023-07-29T10:40:47;27.30;53.50
67050;DHT22;53955;52.442;13.284;2023-07-29T10:43:19;27.30;53.60
67050;DHT22;53955;52.442;13.284;2023-07-29T10:45:50;27.10;54.80
67050;DHT22;53955;52.442;13.284;2023-07-29T10:48:41;27.20;52.30
67050;DHT22;53955;52.442;13.284;2023-07-29T10:51:24;26.90;51.50
67050;DHT22;53955;52.442;13.284;2023-07-29T10:53:55;26.90;51.30
67050;DHT22;53955;52.442;13.284;2023-07-29T10:56:26;26.80;52.10
67050;DHT22;53955;52.442;13.284;2023-07-29T10:58:55;26.70;52.90
67050;DHT22;53955;52.442;13.284;2023-07-29T11:01:31;26.50;52.60
67050;DHT22;53955;52.442;13.284;2023-07-29T11:04:24;26.30;55.10
67050;DHT22;53955;52.442;13.284;2023-07-29T11:07:26;26.10;59.50
67050;DHT22;53955;52.442;13.284;2023-07-29T11:09:54;25.80;65.60
67050;DHT22;53955;52.442;13.284;2023-07-29T11:12:42;25.40;68.80
67050;DHT22;53955;52.442;13.284;2023-07-29T11:15:21;24.90;70.90
67050;DHT22;53955;52.442;13.284;2023-07-29T11:17:50;24.60;72.60
67050;DHT22;53955;52.442;13.284;2023-07-29T11:20:19;24.50;74.50
67050;DHT22;53955;52.442;13.284;2023-07-29T11:22:46;24.40;76.20
67050;DHT22;53955;52.442;13.284;2023-07-29T11:25:14;24.40;76.90
67050;DHT22;53955;52.442;13.284;2023-07-29T11:27:41;24.40;76.90
67050;DHT22;53955;52.442;13.284;2023-07-29T11:30:09;24.60;76.70
67050;DHT22;53955;52.442;13.284;2023-07-29T11:32:37;24.60;75.70
67050;DHT22;53955;52.442;13.284;2023-07-29T11:35:05;24.70;74.90
67050;DHT22;53955;52.442;13.284;2023-07-29T11:37:34;24.60;75.30
67050;DHT22;53955;52.442;13.284;2023-07-29T11:40:01;24.50;75.90
67050;DHT22;53955;52.442;13.284;2023-07-29T11:42:28;24.50;77.10
67050;DHT22;53955;52.442;13.284;2023-07-29T11:44:56;24.50;76.10
67050;DHT22;53955;52.442;13.284;2023-07-29T11:47:24;24.50;76.50
67050;DHT22;53955;52.442;13.284;2023-07-29T11:49:51;24.50;77.10
67050;DHT22;53955;52.442;13.284;2023-07-29T11:52:18;24.60;77.00
67050;DHT22;53955;52.442;13.284;2023-07-29T11:54:47;24.70;76.00
67050;DHT22;53955;52.442;13.284;2023-07-29T11:57:16;24.60;75.30
67050;DHT22;53955;52.442;13.284;2023-07-29T11:59:43;24.50;76.20
67050;DHT22;53955;52.442;13.284;2023-07-29T12:02:12;24.30;76.90
67050;DHT22;53955;52.442;13.284;2023-07-29T12:04:40;24.50;76.80
67050;DHT22;53955;52.442;13.284;2023-07-29T12:07:07;24.40;77.10
67050;DHT22;53955;52.442;13.284;2023-07-29T12:09:34;24.40;77.00
67050;DHT22;53955;52.442;13.284;2023-07-29T12:12:03;24.40;77.20
67050;DHT22;53955;52.442;13.284;2023-07-29T12:14:30;24.30;76.40
67050;DHT22;53955;52.442;13.284;2023-07-29T12:16:59;24.40;76.00
67050;DHT22;53955;52.442;13.284;2023-07-29T12:19:31;24.30;76.70
67050;DHT22;53955;52.442;13.284;2023-07-29T12:21:58;24.20;77.30
67050;DHT22;53955;52.442;13.284;2023-07-29T12:24:25;24.20;76.80
67050;DHT22;53955;52.442;13.284;2023-07-29T12:26:51;24.20;77.50
67050;DHT22;53955;52.442;13.284;2023-07-29T12:29:19;24.10;77.80
67050;DHT22;53955;52.442;13.284;2023-07-29T12:31:46;24.20;78.60
67050;DHT22;53955;52.442;13.284;2023-07-29T12:34:17;24.30;78.00
67050;DHT22;53955;52.442;13.284;2023-07-29T12:36:45;24.50;77.10
67050;DHT22;53955;52.442;13.284;2023-07-29T12:42:34;25.00;76.80
67050;DHT22;53955;52.442;13.284;2023-07-29T12:45:02;25.40;74.20
67050;DHT22;53955;52.442;13.284;2023-07-29T12:47:29;25.60;73.80
67050;DHT22;53955;52.442;13.284;2023-07-29T12:49:55;25.80;73.10
67050;DHT22;53955;52.442;13.284;2023-07-29T12:52:22;26.00;72.40
67050;DHT22;53955;52.442;13.284;2023-07-29T12:54:49;26.20;71.10
67050;DHT22;53955;52.442;13.284;2023-07-29T12:57:15;26.40;67.70
67050;DHT22;53955;52.442;13.284;2023-07-29T12:59:42;26.30;68.90
67050;DHT22;53955;52.442;13.284;2023-07-29T13:02:10;26.30;67.50
67050;DHT22;53955;52.442;13.284;2023-07-29T13:04:36;26.20;68.30
67050;DHT22;53955;52.442;13.284;2023-07-29T13:07:03;26.00;68.50
67050;DHT22;53955;52.442;13.284;2023-07-29T13:09:30;26.00;69.80
67050;DHT22;53955;52.442;13.284;2023-07-29T13:11:56;26.20;69.60
67050;DHT22;53955;52.442;13.284;2023-07-29T13:14:23;26.20;68.60
67050;DHT22;53955;52.442;13.284;2023-07-29T13:16:51;26.20;68.80
67050;DHT22;53955;52.442;13.284;2023-07-29T13:19:19;26.20;68.90
67050;DHT22;53955;52.442;13.284;2023-07-29T13:21:46;26.20;68.20
67050;DHT22;53955;52.442;13.284;2023-07-29T13:24:12;26.20;68.50
67050;DHT22;53955;52.442;13.284;2023-07-29T13:26:39;26.20;68.70
67050;DHT22;53955;52.442;13.284;2023-07-29T13:29:05;26.20;69.30
67050;DHT22;53955;52.442;13.284;2023-07-29T13:31:32;26.40;66.90
67050;DHT22;53955;52.442;13.284;2023-07-29T13:33:59;26.50;66.00
67050;DHT22;53955;52.442;13.284;2023-07-29T13:36:26;26.50;67.00
67050;DHT22;53955;52.442;13.284;2023-07-29T13:38:53;26.70;67.20
67050;DHT22;53955;52.442;13.284;2023-07-29T13:41:19;26.70;66.50
67050;DHT22;53955;52.442;13.284;2023-07-29T13:43:46;26.70;66.30
67050;DHT22;53955;52.442;13.284;2023-07-29T13:46:13;26.80;63.20
67050;DHT22;53955;52.442;13.284;2023-07-29T13:48:39;26.80;64.10
67050;DHT22;53955;52.442;13.284;2023-07-29T13:51:06;27.10;64.50
67050;DHT22;53955;52.442;13.284;2023-07-29T13:53:33;27.00;63.70
67050;DHT22;53955;52.442;13.284;2023-07-29T13:56:00;26.70;62.80
67050;DHT22;53955;52.442;13.284;2023-07-29T13:58:26;26.60;64.20
67050;DHT22;53955;52.442;13.284;2023-07-29T14:00:53;26.70;63.80
67050;DHT22;53955;52.442;13.284;2023-07-29T14:03:20;26.80;64.50
67050;DHT22;53955;52.442;13.284;2023-07-29T14:05:46;26.80;63.50
67050;DHT22;53955;52.442;13.284;2023-07-29T14:08:13;26.90;62.50
67050;DHT22;53955;52.442;13.284;2023-07-29T14:10:41;27.10;61.90
67050;DHT22;53955;52.442;13.284;2023-07-29T14:13:07;27.00;60.60
67050;DHT22;53955;52.442;13.284;2023-07-29T14:15:34;26.90;61.10
67050;DHT22;53955;52.442;13.284;2023-07-29T14:18:00;26.90;61.30
67050;DHT22;53955;52.442;13.284;2023-07-29T14:20:28;26.90;61.00
67050;DHT22;53955;52.442;13.284;2023-07-29T14:22:54;27.00;61.20
67050;DHT22;53955;52.442;13.284;2023-07-29T14:25:21;27.00;61.20
67050;DHT22;53955;52.442;13.284;2023-07-29T14:27:49;26.90;60.70
67050;DHT22;53955;52.442;13.284;2023-07-29T14:30:15;27.00;60.90
67050;DHT22;53955;52.442;13.284;2023-07-29T14:32:42;27.10;61.30
67050;DHT22;53955;52.442;13.284;2023-07-29T14:35:08;27.00;60.70
67050;DHT22;53955;52.442;13.284;2023-07-29T14:37:35;26.90;61.10
67050;DHT22;53955;52.442;13.284;2023-07-29T14:40:03;27.00;61.30
67050;DHT22;53955;52.442;13.284;2023-07-29T14:42:30;26.90;60.70
67050;DHT22;53955;52.442;13.284;2023-07-29T14:44:58;26.80;61.20
67050;DHT22;53955;52.442;13.284;2023-07-29T14:47:25;26.70;61.00
67050;DHT22;53955;52.442;13.284;2023-07-29T14:49:51;26.60;61.50
67050;DHT22;53955;52.442;13.284;2023-07-29T14:52:18;26.50;61.40
67050;DHT22;53955;52.442;13.284;2023-07-29T14:54:44;26.40;61.50
67050;DHT22;53955;52.442;13.284;2023-07-29T14:57:11;26.30;64.10
67050;DHT22;53955;52.442;13.284;2023-07-29T14:59:37;26.20;65.00
67050;DHT22;53955;52.442;13.284;2023-07-29T15:02:06;26.00;65.60
67050;DHT22;53955;52.442;13.284;2023-07-29T15:04:32;25.90;66.50
67050;DHT22;53955;52.442;13.284;2023-07-29T15:06:59;25.90;66.50
67050;DHT22;53955;52.442;13.284;2023-07-29T15:09:25;25.80;66.50
67050;DHT22;53955;52.442;13.284;2023-07-29T15:11:52;25.70;66.70
67050;DHT22;53955;52.442;13.284;2023-07-29T15:14:19;25.60;67.10
67050;DHT22;53955;52.442;13.284;2023-07-29T15:16:45;25.60;67.70
67050;DHT22;53955;52.442;13.284;2023-07-29T15:19:13;25.60;68.00
67050;DHT22;53955;52.442;13.284;2023-07-29T15:21:40;25.60;68.30
67050;DHT22;53955;52.442;13.284;2023-07-29T15:24:06;25.60;67.80